Osceola, IA

12:56 PM CST on February 01, 2015 (GMT -0600)
Lamoni Municipal | Change Station
CLOSE
Current Station
Airport
Location: Lamoni,
Elevation: 1132 ft
Nearby Weather Stations
Active Advisory: Winter Storm Warning Active Notice: Record Report

Elev 1132 ft 40.63 °N, 93.90 °W | Updated 18 minutes ago

Snow
Snow
26 °F
Feels Like 10 °F
N
26
Wind Variable Wind from North
Gusts 39 mph

Today
High -- | Low -- °F
--% Chance of Precip.
Yesterday
High -- | Low -- °F
Precip. -- in
7:25 AM 5:31 PM
Waxing Gibbous, 96% visible
Pressure 29.80 in
Visibility 0.5 miles
Clouds Scattered Clouds 700 ft
Overcast 1300 ft
Windchill 10 °F
Dew Point 23 °F
Humidity 88%
Rainfall 0.45 in
Snow Depth Not available.
UV 1 out of 12
Pollen .10 out of 12
Air Quality Not available.
Flu Activity Not available.
SPECI KLWD 011838Z AUTO 01023G34KT 1/2SM SN FZFG SCT007 OVC013 M03/M05 A2980 RMK AO2 PK WND 01034/1830 P0000 T10331050 $

More Conditions Fewer Conditions

Pressure 29.80 in
Visibility 0.5 miles
Clouds Scattered Clouds 700 ft
Overcast 1300 ft
Windchill 10 °F
Dew Point 23 °F
Humidity 88%
Rainfall 0.45 in
Snow Depth Not available.
UV 1 out of 12
Pollen .10 out of 12
Air Quality Not available.
Flu Activity Not available.
SPECI KLWD 011838Z AUTO 01023G34KT 1/2SM SN FZFG SCT007 OVC013 M03/M05 A2980 RMK AO2 PK WND 01034/1830 P0000 T10331050 $

More Conditions Fewer Conditions

10-Day Weather Forecast

Almanac

Astronomy

Feb. 01, 2015 Rise Set
Actual Time
Civil Twilight
Nautical Twilight
Astronomical Twilight
Moon
Length of Visible Light
Length of Day
Tomorrow will be .
, % of the Moon is Illuminated

Today's Extremes

State Highs State Lows

Community

WunderPhotos

Upload Photos

1,792,434 photos uploaded!

WunderBlogs® & News

Nearby

Air Quality

  Air Quality AQ Index Pollutant
Not available.

Snow Depth

Station Depth Elevation

Earthquake Activity

City Distance Mag. Time & Date
Minimum magnitude displayed is 2.5.

Coastal Water Temperatures

Place Temperature

Nearby Weather Stations